createdAt,value
2023-03-15T00:01:27.547Z,15.07
2023-03-15T00:03:56.541Z,15.05
2023-03-15T00:06:22.823Z,17.88
2023-03-15T00:08:49.040Z,17.13
2023-03-15T00:11:16.097Z,16.85
2023-03-15T00:13:42.890Z,16.05
2023-03-15T00:16:09.254Z,19.17
2023-03-15T00:18:35.473Z,17.17
2023-03-15T00:21:01.686Z,19.90
2023-03-15T00:23:28.942Z,14.25
2023-03-15T00:25:55.206Z,13.65
2023-03-15T00:28:21.625Z,16.35
2023-03-15T00:30:47.959Z,11.75
2023-03-15T00:33:14.848Z,13.65
2023-03-15T00:35:42.367Z,14.02
2023-03-15T00:38:08.881Z,12.48
2023-03-15T00:40:36.670Z,14.55
2023-03-15T00:43:03.353Z,12.05
2023-03-15T00:45:29.577Z,12.70
2023-03-15T00:47:55.993Z,10.60
2023-03-15T00:50:22.796Z,13.02
2023-03-15T00:52:49.347Z,16.95
2023-03-15T00:55:17.111Z,15.15
2023-03-15T00:57:44.742Z,15.75
2023-03-15T01:00:12.743Z,13.10
2023-03-15T01:02:38.977Z,13.63
2023-03-15T01:05:06.249Z,13.77
2023-03-15T01:07:35.658Z,15.20
2023-03-15T01:10:02.680Z,14.98
2023-03-15T01:12:29.602Z,14.77
2023-03-15T01:14:55.910Z,9.70
2023-03-15T01:17:22.169Z,11.07
2023-03-15T01:19:48.412Z,15.32
2023-03-15T01:22:14.721Z,16.70
2023-03-15T01:24:40.939Z,12.68
2023-03-15T01:27:07.141Z,20.27
2023-03-15T01:29:33.343Z,15.30
2023-03-15T01:31:59.547Z,17.10
2023-03-15T01:34:25.786Z,10.77
2023-03-15T01:36:55.001Z,15.65
2023-03-15T01:39:21.229Z,12.80
2023-03-15T01:41:47.675Z,11.90
2023-03-15T01:44:14.818Z,17.50
2023-03-15T01:46:41.271Z,10.48
2023-03-15T01:49:12.392Z,11.02
2023-03-15T01:51:46.836Z,9.90
2023-03-15T01:54:15.397Z,14.38
2023-03-15T01:56:43.911Z,12.48
2023-03-15T01:59:12.905Z,12.18
2023-03-15T02:01:45.562Z,11.15
2023-03-15T02:04:15.696Z,8.75
2023-03-15T02:06:46.604Z,9.48
2023-03-15T02:09:14.944Z,8.65
2023-03-15T02:11:41.953Z,10.52
2023-03-15T02:14:09.634Z,11.00
2023-03-15T02:16:35.937Z,7.55
2023-03-15T02:19:02.212Z,10.73
2023-03-15T02:21:52.366Z,8.35
2023-03-15T02:24:33.218Z,9.20
2023-03-15T02:26:59.494Z,9.20
2023-03-15T02:29:26.655Z,9.88
2023-03-15T02:31:53.258Z,7.93
2023-03-15T02:34:19.501Z,5.88
2023-03-15T02:36:45.693Z,6.65
2023-03-15T02:39:15.872Z,7.68
2023-03-15T02:41:43.609Z,7.43
2023-03-15T02:44:18.882Z,6.80
2023-03-15T02:46:46.072Z,5.97
2023-03-15T02:49:13.317Z,5.07
2023-03-15T02:51:39.555Z,6.72
2023-03-15T02:54:05.762Z,5.78
2023-03-15T02:56:33.370Z,5.72
2023-03-15T02:58:59.887Z,7.57
2023-03-15T03:01:26.097Z,7.03
2023-03-15T03:03:52.328Z,5.47
2023-03-15T03:06:18.764Z,5.50
2023-03-15T03:08:47.429Z,5.55
2023-03-15T03:11:14.826Z,7.60
2023-03-15T03:13:42.294Z,6.60
2023-03-15T03:16:08.991Z,5.50
2023-03-15T03:18:35.914Z,6.07
2023-03-15T03:21:05.620Z,5.63
2023-03-15T03:23:33.798Z,6.03
2023-03-15T03:26:00.721Z,6.13
2023-03-15T03:28:28.156Z,6.65
2023-03-15T03:30:55.379Z,8.32
2023-03-15T03:33:22.423Z,8.32
2023-03-15T03:35:48.869Z,8.20
2023-03-15T03:38:15.362Z,6.32
2023-03-15T03:40:41.736Z,7.18
2023-03-15T03:43:08.485Z,8.77
2023-03-15T03:45:34.924Z,8.02
2023-03-15T03:48:01.195Z,11.45
2023-03-15T03:50:27.554Z,8.57
2023-03-15T03:52:53.875Z,8.00
2023-03-15T03:55:24.913Z,8.50
2023-03-15T03:57:51.891Z,8.95
2023-03-15T04:00:18.583Z,7.95
2023-03-15T04:02:44.905Z,9.35
2023-03-15T04:05:11.469Z,7.80
2023-03-15T04:07:38.081Z,8.25
2023-03-15T04:10:04.961Z,6.80
2023-03-15T04:12:31.332Z,8.65
2023-03-15T04:14:57.666Z,8.68
2023-03-15T04:17:23.890Z,8.50
2023-03-15T04:19:50.157Z,8.40
2023-03-15T04:22:16.431Z,8.93
2023-03-15T04:24:42.622Z,7.35
2023-03-15T04:27:09.433Z,10.43
2023-03-15T04:29:35.613Z,11.07
2023-03-15T04:32:01.826Z,10.18
2023-03-15T04:34:29.157Z,9.52
2023-03-15T04:36:55.716Z,7.00
2023-03-15T04:39:21.950Z,8.70
2023-03-15T04:41:48.148Z,7.40
2023-03-15T04:44:17.350Z,10.20
2023-03-15T04:46:43.711Z,8.27
2023-03-15T04:49:09.964Z,9.05
2023-03-15T04:51:36.245Z,11.38
2023-03-15T04:54:02.930Z,8.35
2023-03-15T04:56:29.933Z,8.63
2023-03-15T04:58:56.157Z,9.45
2023-03-15T05:01:25.285Z,8.18
2023-03-15T05:03:51.506Z,7.97
2023-03-15T05:06:17.710Z,7.22
2023-03-15T05:08:45.201Z,7.35
2023-03-15T05:11:11.496Z,8.60
2023-03-15T05:13:37.747Z,6.63
2023-03-15T05:16:04.019Z,6.80
2023-03-15T05:18:30.257Z,9.50
2023-03-15T05:20:56.492Z,9.30
2023-03-15T05:23:23.392Z,7.63
2023-03-15T05:25:55.772Z,7.22
2023-03-15T05:28:23.547Z,6.97
2023-03-15T05:30:51.965Z,7.60
2023-03-15T05:33:18.693Z,6.97
2023-03-15T05:35:45.143Z,7.93
2023-03-15T05:38:14.466Z,8.60
2023-03-15T05:40:44.010Z,8.50
2023-03-15T05:43:10.231Z,8.07
2023-03-15T05:45:36.795Z,9.38
2023-03-15T05:48:03.143Z,9.18
2023-03-15T05:50:29.669Z,8.77
2023-03-15T05:52:56.981Z,9.30
2023-03-15T05:55:23.828Z,8.90
2023-03-15T05:57:50.101Z,10.48
2023-03-15T06:00:16.720Z,8.48
2023-03-15T06:02:43.836Z,9.25
2023-03-15T06:05:10.059Z,8.30
2023-03-15T06:07:36.279Z,8.10
2023-03-15T06:10:02.994Z,9.02
2023-03-15T06:12:29.193Z,8.40
2023-03-15T06:14:55.391Z,7.75
2023-03-15T06:17:21.631Z,8.02
2023-03-15T06:19:47.835Z,9.10
2023-03-15T06:22:14.040Z,10.27
2023-03-15T06:24:40.472Z,9.10
2023-03-15T06:27:06.711Z,10.95
2023-03-15T06:29:32.956Z,11.20
2023-03-15T06:31:59.206Z,11.45
2023-03-15T06:34:25.473Z,13.10
2023-03-15T06:36:52.428Z,12.80
2023-03-15T06:39:18.641Z,12.40
2023-03-15T06:41:44.858Z,12.10
2023-03-15T06:44:11.228Z,13.27
2023-03-15T06:46:37.559Z,11.93
2023-03-15T06:49:03.848Z,11.90
2023-03-15T06:51:30.040Z,12.18
2023-03-15T06:53:56.258Z,13.30
2023-03-15T06:56:22.522Z,12.98
2023-03-15T06:58:48.727Z,12.05
2023-03-15T07:01:15.408Z,12.63
2023-03-15T07:03:42.036Z,13.20
2023-03-15T07:06:08.597Z,14.18
2023-03-15T07:08:34.832Z,14.93
2023-03-15T07:11:02.938Z,13.00
2023-03-15T07:13:29.195Z,16.17
2023-03-15T07:15:56.381Z,16.17
2023-03-15T07:18:22.748Z,16.17
2023-03-15T07:20:55.550Z,15.75
2023-03-15T07:23:21.754Z,15.75
2023-03-15T07:25:54.948Z,17.92
2023-03-15T07:28:22.097Z,18.60
2023-03-15T07:30:58.601Z,18.10
2023-03-15T07:33:25.547Z,18.60
2023-03-15T07:35:53.472Z,18.20
2023-03-15T07:38:20.741Z,18.90
2023-03-15T07:40:46.956Z,19.50
2023-03-15T07:43:13.212Z,22.10
2023-03-15T07:45:39.554Z,20.90
2023-03-15T07:48:06.039Z,22.15
2023-03-15T07:50:32.332Z,18.40
2023-03-15T07:52:58.576Z,16.90
2023-03-15T07:55:25.337Z,17.05
2023-03-15T07:57:53.277Z,16.30
2023-03-15T08:00:20.030Z,17.33
2023-03-15T08:02:46.369Z,17.13
2023-03-15T08:05:12.607Z,19.48
2023-03-15T08:07:38.904Z,17.17
2023-03-15T08:10:06.117Z,17.90
2023-03-15T08:12:33.144Z,17.35
2023-03-15T08:14:59.405Z,16.30
2023-03-15T08:17:25.623Z,18.13
2023-03-15T08:19:51.824Z,20.90
2023-03-15T08:22:18.110Z,21.77
2023-03-15T08:24:45.653Z,20.35
2023-03-15T08:27:11.908Z,18.80
2023-03-15T08:29:38.166Z,21.45
2023-03-15T08:32:04.602Z,20.63
2023-03-15T08:34:33.520Z,17.98
2023-03-15T08:36:59.755Z,18.63
2023-03-15T08:39:25.946Z,18.95
2023-03-15T08:41:52.152Z,20.00
2023-03-15T08:44:18.522Z,18.05
2023-03-15T08:46:44.803Z,17.55
2023-03-15T08:49:11.059Z,17.58
2023-03-15T08:51:37.304Z,20.08
2023-03-15T08:54:03.904Z,19.88
2023-03-15T08:56:30.199Z,19.92
2023-03-15T08:58:56.453Z,17.88
2023-03-15T09:01:22.679Z,20.08
2023-03-15T09:03:50.573Z,18.67
2023-03-15T09:06:16.834Z,17.15
2023-03-15T09:08:43.037Z,20.10
2023-03-15T09:11:09.348Z,20.38
2023-03-15T09:13:35.626Z,18.00
2023-03-15T09:16:03.327Z,20.75
2023-03-15T09:18:30.001Z,20.50
2023-03-15T09:20:57.731Z,17.45
2023-03-15T09:23:24.188Z,20.90
2023-03-15T09:25:50.407Z,19.33
2023-03-15T09:28:16.712Z,17.80
2023-03-15T09:30:43.003Z,68.22
2023-03-15T09:33:09.658Z,34.42
2023-03-15T09:35:35.931Z,23.90
2023-03-15T09:38:03.739Z,19.83
2023-03-15T09:40:32.053Z,15.43
2023-03-15T09:43:07.278Z,16.27
2023-03-15T09:45:46.250Z,15.80
2023-03-15T09:48:19.504Z,18.40
2023-03-15T09:50:48.337Z,14.20
2023-03-15T09:53:18.763Z,14.35
2023-03-15T09:55:46.394Z,13.43
2023-03-15T09:58:21.381Z,9.57
2023-03-15T10:00:50.384Z,9.10
2023-03-15T10:03:23.039Z,8.38
2023-03-15T10:05:54.070Z,8.93
2023-03-15T10:08:20.951Z,7.03
2023-03-15T10:10:50.729Z,7.97
2023-03-15T10:13:25.969Z,6.50
2023-03-15T10:16:06.158Z,6.25
2023-03-15T10:18:38.022Z,6.45
2023-03-15T10:21:07.597Z,6.70
2023-03-15T10:23:49.184Z,6.47
2023-03-15T10:26:18.864Z,8.65
2023-03-15T10:28:45.482Z,5.45
2023-03-15T10:31:21.634Z,6.15
2023-03-15T10:33:52.384Z,5.70
2023-03-15T10:36:19.746Z,6.72
2023-03-15T10:38:46.159Z,7.78
2023-03-15T10:41:17.891Z,4.57
2023-03-15T10:43:57.475Z,4.97
2023-03-15T10:46:24.272Z,4.22
2023-03-15T10:49:00.878Z,8.30
2023-03-15T10:51:28.775Z,6.47
2023-03-15T10:54:16.464Z,5.20
2023-03-15T10:56:47.570Z,5.45
2023-03-15T10:59:21.019Z,5.22
2023-03-15T11:02:07.894Z,7.20
2023-03-15T11:04:34.516Z,5.85
2023-03-15T11:07:03.205Z,6.00
2023-03-15T11:09:42.843Z,5.22
2023-03-15T11:12:24.037Z,4.10
2023-03-15T11:14:51.074Z,6.20
2023-03-15T11:17:18.960Z,5.88
2023-03-15T11:20:13.003Z,3.05
2023-03-15T11:22:39.754Z,5.10
2023-03-15T11:25:12.192Z,5.13
2023-03-15T11:27:38.424Z,3.60
2023-03-15T11:30:04.825Z,5.40
2023-03-15T11:32:32.010Z,5.10
2023-03-15T11:35:21.066Z,4.32
2023-03-15T11:37:50.516Z,6.63
2023-03-15T11:40:23.679Z,3.05
2023-03-15T11:42:58.827Z,4.43
2023-03-15T11:45:36.412Z,3.75
2023-03-15T11:48:16.499Z,3.42
2023-03-15T11:50:42.761Z,2.60
2023-03-15T11:53:10.889Z,4.78
2023-03-15T11:55:37.446Z,5.28
2023-03-15T11:58:23.925Z,4.20
2023-03-15T12:00:51.196Z,7.90
2023-03-15T12:03:25.448Z,2.83
2023-03-15T12:05:52.988Z,9.95
2023-03-15T12:08:22.200Z,3.92
2023-03-15T12:10:49.540Z,3.35
2023-03-15T12:13:26.686Z,4.03
2023-03-15T12:15:53.141Z,3.83
2023-03-15T12:18:21.402Z,3.40
2023-03-15T12:21:20.413Z,4.05
2023-03-15T12:23:48.808Z,3.78
2023-03-15T12:26:24.135Z,3.22
2023-03-15T12:29:03.901Z,4.05
2023-03-15T12:31:43.102Z,3.80
2023-03-15T12:34:14.459Z,3.65
2023-03-15T12:39:06.784Z,3.72
2023-03-15T12:41:59.414Z,4.07
2023-03-15T12:44:31.805Z,3.55
2023-03-15T12:47:01.557Z,2.60
2023-03-15T12:49:32.083Z,5.22
2023-03-15T12:52:00.205Z,6.65
2023-03-15T12:54:41.520Z,4.30
2023-03-15T12:57:10.150Z,4.47
2023-03-15T12:59:56.410Z,4.40
2023-03-15T13:02:41.764Z,5.07
2023-03-15T13:05:08.779Z,5.47
2023-03-15T13:07:51.120Z,4.72
2023-03-15T13:10:38.992Z,4.55
2023-03-15T13:13:34.723Z,3.35
2023-03-15T13:16:02.028Z,5.15
2023-03-15T13:18:29.863Z,5.22
2023-03-15T13:21:14.360Z,2.90
2023-03-15T13:23:43.542Z,5.82
2023-03-15T13:26:28.715Z,4.22
2023-03-15T13:29:09.876Z,4.75
2023-03-15T13:31:37.032Z,5.45
2023-03-15T13:34:16.836Z,5.43
2023-03-15T13:36:47.340Z,5.20
2023-03-15T13:39:26.081Z,5.05
2023-03-15T13:42:02.261Z,5.20
2023-03-15T13:44:29.327Z,6.57
2023-03-15T13:46:56.121Z,3.10
2023-03-15T13:49:22.493Z,6.18
2023-03-15T13:51:50.023Z,6.10
2023-03-15T13:54:27.529Z,6.47
2023-03-15T13:56:55.406Z,3.60
2023-03-15T13:59:23.572Z,3.58
2023-03-15T14:01:53.962Z,5.10
2023-03-15T14:04:22.178Z,2.80
2023-03-15T14:06:49.007Z,3.90
2023-03-15T14:09:20.216Z,4.13
2023-03-15T14:11:59.393Z,5.07
2023-03-15T14:14:28.013Z,6.35
2023-03-15T14:17:05.261Z,2.33
2023-03-15T14:19:33.888Z,5.50
2023-03-15T14:22:01.694Z,3.72
2023-03-15T14:24:33.510Z,3.33
2023-03-15T14:27:01.201Z,2.67
2023-03-15T14:29:31.968Z,5.45
2023-03-15T14:32:03.109Z,4.47
2023-03-15T14:34:34.295Z,3.17
2023-03-15T14:37:04.224Z,4.60
2023-03-15T14:39:32.107Z,8.63
2023-03-15T14:41:58.317Z,4.82
2023-03-15T14:44:24.564Z,4.60
2023-03-15T14:46:50.947Z,3.97
2023-03-15T14:49:24.842Z,6.28
2023-03-15T14:51:56.949Z,2.67
2023-03-15T14:54:23.364Z,5.13
2023-03-15T14:56:49.564Z,5.68
2023-03-15T14:59:15.752Z,4.18
2023-03-15T15:01:46.821Z,4.03
2023-03-15T15:04:13.764Z,2.90
2023-03-15T15:06:40.312Z,2.97
2023-03-15T15:09:06.563Z,4.53
2023-03-15T15:11:33.073Z,2.97
2023-03-15T15:13:59.587Z,2.83
2023-03-15T15:16:25.880Z,3.58
2023-03-15T15:18:52.369Z,3.97
2023-03-15T15:21:21.515Z,3.58
2023-03-15T15:23:57.997Z,4.63
2023-03-15T15:26:28.906Z,7.55
2023-03-15T15:28:56.281Z,2.28
2023-03-15T15:31:23.795Z,4.68
2023-03-15T15:33:53.949Z,2.92
2023-03-15T15:36:39.084Z,2.20
2023-03-15T15:39:10.462Z,3.95
2023-03-15T15:41:36.671Z,5.53
2023-03-15T15:44:02.950Z,6.07
2023-03-15T15:46:29.398Z,3.45
2023-03-15T15:48:55.806Z,4.20
2023-03-15T15:51:29.655Z,3.85
2023-03-15T15:53:59.904Z,6.82
2023-03-15T15:56:31.586Z,8.40
2023-03-15T15:58:58.212Z,3.00
2023-03-15T16:01:24.481Z,3.85
2023-03-15T16:03:50.689Z,2.92
2023-03-15T16:06:18.356Z,2.47
2023-03-15T16:08:44.840Z,5.32
2023-03-15T16:11:12.622Z,3.47
2023-03-15T16:13:38.853Z,3.63
2023-03-15T16:16:05.185Z,3.30
2023-03-15T16:18:32.069Z,2.85
2023-03-15T16:20:59.022Z,3.75
2023-03-15T16:23:25.570Z,2.60
2023-03-15T16:25:55.354Z,3.75
2023-03-15T16:28:22.533Z,5.78
2023-03-15T16:30:48.824Z,4.00
2023-03-15T16:33:16.796Z,4.20
2023-03-15T16:35:43.893Z,5.18
2023-03-15T16:38:15.657Z,5.18
2023-03-15T16:40:43.092Z,4.82
2023-03-15T16:43:13.635Z,5.03
2023-03-15T16:45:40.217Z,3.13
2023-03-15T16:48:06.493Z,6.03
2023-03-15T16:50:33.407Z,4.00
2023-03-15T16:53:00.997Z,4.03
2023-03-15T16:55:29.088Z,5.63
2023-03-15T16:57:55.935Z,3.45
2023-03-15T17:00:22.374Z,5.93
2023-03-15T17:02:49.661Z,2.75
2023-03-15T17:05:18.821Z,4.80
2023-03-15T17:07:45.940Z,3.95
2023-03-15T17:10:21.701Z,3.22
2023-03-15T17:12:47.908Z,4.57
2023-03-15T17:15:14.499Z,3.85
2023-03-15T17:17:40.707Z,4.53
2023-03-15T17:20:10.810Z,6.68
2023-03-15T17:22:37.099Z,3.95
2023-03-15T17:25:03.553Z,3.63
2023-03-15T17:27:40.420Z,4.75
2023-03-15T17:30:15.983Z,3.13
2023-03-15T17:32:42.247Z,4.72
2023-03-15T17:35:09.439Z,3.80
2023-03-15T17:37:37.650Z,6.70
2023-03-15T17:40:12.316Z,5.30
2023-03-15T17:42:39.381Z,5.03
2023-03-15T17:45:15.685Z,4.95
2023-03-15T17:47:41.896Z,4.05
2023-03-15T17:50:08.588Z,4.80
2023-03-15T17:52:34.836Z,2.92
2023-03-15T17:55:01.061Z,3.80
2023-03-15T17:57:27.330Z,4.38
2023-03-15T17:59:53.703Z,4.10
2023-03-15T18:02:21.635Z,5.75
2023-03-15T18:04:47.851Z,5.15
2023-03-15T18:07:14.146Z,4.68
2023-03-15T18:09:40.523Z,4.85
2023-03-15T18:12:09.172Z,6.57
2023-03-15T18:14:37.087Z,7.82
2023-03-15T18:17:03.524Z,5.72
2023-03-15T18:19:29.787Z,4.32
2023-03-15T18:21:55.977Z,4.00
2023-03-15T18:24:22.177Z,3.83
2023-03-15T18:26:48.374Z,3.92
2023-03-15T18:29:14.582Z,5.47
2023-03-15T18:31:40.833Z,3.67
2023-03-15T18:34:07.070Z,5.18
2023-03-15T18:36:33.310Z,5.55
2023-03-15T18:38:59.670Z,4.70
2023-03-15T18:41:25.942Z,4.32
2023-03-15T18:43:52.343Z,4.63
2023-03-15T18:46:19.727Z,4.70
2023-03-15T18:48:46.486Z,6.47
2023-03-15T18:51:13.612Z,4.53
2023-03-15T18:53:40.900Z,6.22
2023-03-15T18:56:07.448Z,5.80
2023-03-15T18:58:33.668Z,4.65
2023-03-15T19:00:59.932Z,5.25
2023-03-15T19:03:26.231Z,5.55
2023-03-15T19:05:53.412Z,5.22
2023-03-15T19:08:19.653Z,7.85
2023-03-15T19:10:47.194Z,7.20
2023-03-15T19:13:13.404Z,5.97
2023-03-15T19:15:39.681Z,5.57
2023-03-15T19:18:06.055Z,6.55
2023-03-15T19:20:32.297Z,5.68
2023-03-15T19:22:58.501Z,5.57
2023-03-15T19:25:24.873Z,5.90
2023-03-15T19:27:51.179Z,5.03
2023-03-15T19:30:20.769Z,6.07
2023-03-15T19:32:48.035Z,6.82
2023-03-15T19:35:14.514Z,6.18
2023-03-15T19:37:42.367Z,7.60
2023-03-15T19:40:09.431Z,5.75
2023-03-15T19:42:35.670Z,6.95
2023-03-15T19:45:02.146Z,9.40
2023-03-15T19:47:28.337Z,9.90
2023-03-15T19:49:55.029Z,9.23
2023-03-15T19:52:21.360Z,8.43
2023-03-15T19:54:47.878Z,8.73
2023-03-15T19:57:14.269Z,7.65
2023-03-15T19:59:41.500Z,8.65
2023-03-15T20:02:10.238Z,8.38
2023-03-15T20:04:36.635Z,7.93
2023-03-15T20:07:03.208Z,7.32
2023-03-15T20:09:29.452Z,9.40
2023-03-15T20:11:55.714Z,9.90
2023-03-15T20:14:22.601Z,7.07
2023-03-15T20:16:49.003Z,8.10
2023-03-15T20:19:15.204Z,6.95
2023-03-15T20:21:43.718Z,8.77
2023-03-15T20:24:10.093Z,7.60
2023-03-15T20:26:36.296Z,6.47
2023-03-15T20:29:03.209Z,7.18
2023-03-15T20:31:29.647Z,9.23
2023-03-15T20:33:55.917Z,6.47
2023-03-15T20:36:22.237Z,6.88
2023-03-15T20:38:48.435Z,6.93
2023-03-15T20:41:15.033Z,8.30
2023-03-15T20:43:41.751Z,6.18
2023-03-15T20:46:10.020Z,7.10
2023-03-15T20:48:36.363Z,6.07
2023-03-15T20:51:05.794Z,7.10
2023-03-15T20:53:33.211Z,6.38
2023-03-15T20:55:59.713Z,7.68
2023-03-15T20:58:26.079Z,7.55
2023-03-15T21:01:02.371Z,9.73
2023-03-15T21:03:28.648Z,7.93
2023-03-15T21:05:54.871Z,8.65
2023-03-15T21:08:21.073Z,6.82
2023-03-15T21:10:47.269Z,13.77
2023-03-15T21:13:13.499Z,8.98
2023-03-15T21:15:46.246Z,9.00
2023-03-15T21:18:13.112Z,7.78
2023-03-15T21:20:39.377Z,9.05
2023-03-15T21:23:05.628Z,9.63
2023-03-15T21:25:32.509Z,9.40
2023-03-15T21:27:59.138Z,9.10
2023-03-15T21:30:25.782Z,8.52
2023-03-15T21:32:52.240Z,12.23
2023-03-15T21:35:19.081Z,11.95
2023-03-15T21:37:45.346Z,10.73
2023-03-15T21:40:12.326Z,9.38
2023-03-15T21:42:39.123Z,11.85
2023-03-15T21:45:07.213Z,9.23
2023-03-15T21:47:33.533Z,10.93
2023-03-15T21:50:00.314Z,11.23
2023-03-15T21:52:26.527Z,9.63
2023-03-15T21:54:53.782Z,13.30
2023-03-15T21:57:22.789Z,9.77
2023-03-15T21:59:49.385Z,12.85
2023-03-15T22:02:16.598Z,12.20
2023-03-15T22:04:43.233Z,9.85
2023-03-15T22:07:10.924Z,12.73
2023-03-15T22:09:37.966Z,14.00
2023-03-15T22:12:04.820Z,23.40
2023-03-15T22:14:31.135Z,13.25
2023-03-15T22:16:57.433Z,13.88
2023-03-15T22:19:23.704Z,10.40
2023-03-15T22:21:49.945Z,11.70
2023-03-15T22:24:16.281Z,8.60
2023-03-15T22:26:45.286Z,12.43
2023-03-15T22:29:11.852Z,10.88
2023-03-15T22:31:38.123Z,13.07
2023-03-15T22:34:05.082Z,11.15
2023-03-15T22:36:33.685Z,10.68
2023-03-15T22:39:00.850Z,10.27
2023-03-15T22:41:27.260Z,11.88
2023-03-15T22:43:54.770Z,10.43
2023-03-15T22:46:21.318Z,10.45
2023-03-15T22:48:47.573Z,11.60
2023-03-15T22:51:14.780Z,9.60
2023-03-15T22:53:41.003Z,9.52
2023-03-15T22:56:07.415Z,15.38
2023-03-15T22:58:33.938Z,10.80
2023-03-15T23:01:00.150Z,9.60
2023-03-15T23:03:26.626Z,10.65
2023-03-15T23:05:53.417Z,10.38
2023-03-15T23:08:19.724Z,10.48
2023-03-15T23:10:45.980Z,11.30
2023-03-15T23:13:12.172Z,12.05
2023-03-15T23:15:38.459Z,9.57
2023-03-15T23:18:05.458Z,9.43
2023-03-15T23:20:32.009Z,9.85
2023-03-15T23:22:59.383Z,10.77
2023-03-15T23:25:29.155Z,10.50
2023-03-15T23:27:55.993Z,11.07
2023-03-15T23:30:22.266Z,10.25
2023-03-15T23:32:48.974Z,10.65
2023-03-15T23:35:15.635Z,11.13
2023-03-15T23:37:42.777Z,9.85
2023-03-15T23:40:15.051Z,10.65
2023-03-15T23:42:42.303Z,10.63
2023-03-15T23:45:09.444Z,13.13
2023-03-15T23:47:35.665Z,12.48
2023-03-15T23:50:02.324Z,12.07
2023-03-15T23:52:28.834Z,10.80
2023-03-15T23:54:55.048Z,11.90
2023-03-15T23:57:21.277Z,10.38
2023-03-15T23:59:47.721Z,11.98
